createdAt,value
2023-08-12T00:01:45.427Z,68.43
2023-08-12T00:04:48.869Z,68.40
2023-08-12T00:07:53.149Z,68.52
2023-08-12T00:10:56.935Z,68.75
2023-08-12T00:13:59.962Z,68.85
2023-08-12T00:17:03.793Z,68.90
2023-08-12T00:20:08.020Z,68.92
2023-08-12T00:23:10.988Z,68.91
2023-08-12T00:26:14.463Z,69.08
2023-08-12T00:29:17.467Z,68.99
2023-08-12T00:32:20.413Z,68.98
2023-08-12T00:35:23.369Z,69.07
2023-08-12T00:38:26.410Z,69.14
2023-08-12T00:41:29.299Z,69.13
2023-08-12T00:44:32.288Z,69.25
2023-08-12T00:47:35.252Z,69.24
2023-08-12T00:50:38.753Z,69.19
2023-08-12T00:53:42.042Z,69.23
2023-08-12T00:56:46.114Z,69.35
2023-08-12T00:59:50.350Z,69.39
2023-08-12T01:02:55.167Z,69.39
2023-08-12T01:05:58.357Z,69.39
2023-08-12T01:09:02.773Z,69.42
2023-08-12T01:12:18.115Z,69.57
2023-08-12T01:15:24.946Z,69.62
2023-08-12T01:18:28.879Z,69.84
2023-08-12T01:21:33.651Z,69.80
2023-08-12T01:24:39.471Z,69.77
2023-08-12T01:27:42.441Z,69.73
2023-08-12T01:31:08.636Z,69.72
2023-08-12T01:34:21.684Z,69.75
2023-08-12T01:37:28.144Z,69.66
2023-08-12T01:40:33.661Z,69.76
2023-08-12T01:43:37.000Z,69.79
2023-08-12T01:46:40.054Z,69.95
2023-08-12T01:49:43.003Z,69.85
2023-08-12T01:52:46.015Z,69.80
2023-08-12T01:55:51.121Z,69.65
2023-08-12T01:58:54.139Z,69.64
2023-08-12T02:01:57.097Z,69.76
2023-08-12T02:05:00.167Z,69.83
2023-08-12T02:08:03.369Z,69.83
2023-08-12T02:11:06.398Z,69.70
2023-08-12T02:14:09.525Z,69.76
2023-08-12T02:17:12.836Z,69.79
2023-08-12T02:20:16.276Z,69.90
2023-08-12T02:23:19.283Z,69.95
2023-08-12T02:26:22.248Z,69.99
2023-08-12T02:29:25.282Z,69.91
2023-08-12T02:32:28.417Z,69.94
2023-08-12T02:35:31.453Z,70.01
2023-08-12T02:38:34.485Z,70.01
2023-08-12T02:41:37.448Z,69.92
2023-08-12T02:44:40.397Z,69.96
2023-08-12T02:47:43.434Z,69.83
2023-08-12T02:50:46.440Z,69.71
2023-08-12T02:53:49.418Z,69.59
2023-08-12T02:56:52.345Z,69.66
2023-08-12T02:59:55.419Z,69.72
2023-08-12T03:02:58.530Z,69.64
2023-08-12T03:06:01.717Z,69.73
2023-08-12T03:09:05.486Z,69.71
2023-08-12T03:12:08.843Z,69.64
2023-08-12T03:15:12.172Z,69.31
2023-08-12T03:18:15.216Z,69.35
2023-08-12T03:21:18.231Z,69.24
2023-08-12T03:24:21.310Z,69.16
2023-08-12T03:27:24.510Z,69.04
2023-08-12T03:30:27.978Z,69.08
2023-08-12T03:33:33.024Z,69.22
2023-08-12T03:36:36.432Z,69.36
2023-08-12T03:39:40.123Z,69.23
2023-08-12T03:42:43.156Z,69.11
2023-08-12T03:45:46.632Z,69.23
2023-08-12T03:48:51.259Z,69.43
2023-08-12T03:51:54.570Z,69.63
2023-08-12T03:54:57.957Z,69.62
2023-08-12T03:58:02.205Z,69.74
2023-08-12T04:01:05.649Z,69.95
2023-08-12T04:04:10.392Z,70.16
2023-08-12T04:07:14.929Z,70.18
2023-08-12T04:10:18.404Z,70.32
2023-08-12T04:13:21.753Z,70.44
2023-08-12T04:16:24.824Z,70.65
2023-08-12T04:19:27.874Z,70.71
2023-08-12T04:22:30.827Z,70.81
2023-08-12T04:25:33.767Z,70.94
2023-08-12T04:28:38.333Z,71.08
2023-08-12T04:31:42.475Z,71.20
2023-08-12T04:34:46.954Z,71.40
2023-08-12T04:37:50.559Z,71.46
2023-08-12T04:40:55.939Z,71.64
2023-08-12T04:43:59.439Z,71.87
2023-08-12T04:47:04.168Z,72.10
2023-08-12T04:50:07.942Z,72.25
2023-08-12T04:53:11.244Z,72.48
2023-08-12T04:56:14.494Z,72.69
2023-08-12T04:59:17.522Z,72.87
2023-08-12T05:02:21.784Z,73.33
2023-08-12T05:05:27.198Z,73.60
2023-08-12T05:08:30.229Z,73.85
2023-08-12T05:11:33.306Z,74.04
2023-08-12T05:14:36.410Z,74.26
2023-08-12T05:17:39.408Z,74.49
2023-08-12T05:20:46.710Z,74.58
2023-08-12T05:23:50.454Z,74.64
2023-08-12T05:26:53.492Z,74.72
2023-08-12T05:29:56.475Z,74.92
2023-08-12T05:32:59.490Z,75.06
2023-08-12T05:36:03.942Z,75.24
2023-08-12T05:39:11.103Z,75.64
2023-08-12T05:42:14.409Z,75.54
2023-08-12T05:45:17.500Z,75.27
2023-08-12T05:48:20.392Z,75.03
2023-08-12T05:51:23.396Z,74.89
2023-08-12T05:54:26.318Z,74.61
2023-08-12T05:57:29.935Z,74.75
2023-08-12T06:00:33.158Z,74.80
2023-08-12T06:03:36.197Z,74.61
2023-08-12T06:06:39.509Z,74.65
2023-08-12T06:09:42.540Z,74.97
2023-08-12T06:12:45.473Z,74.76
2023-08-12T06:15:48.471Z,74.79
2023-08-12T06:18:51.402Z,74.70
2023-08-12T06:21:54.426Z,74.44
2023-08-12T06:24:57.326Z,73.63
2023-08-12T06:28:00.390Z,73.00
2023-08-12T06:31:03.477Z,72.41
2023-08-12T06:34:06.526Z,71.63
2023-08-12T06:37:09.771Z,71.14
2023-08-12T06:40:12.710Z,70.27
2023-08-12T06:43:15.591Z,69.72
2023-08-12T06:46:18.664Z,69.35
2023-08-12T06:49:21.654Z,69.12
2023-08-12T06:52:24.946Z,68.67
2023-08-12T06:55:27.953Z,67.78
2023-08-12T06:58:30.875Z,66.58
2023-08-12T07:01:33.878Z,65.82
2023-08-12T07:04:36.987Z,65.90
2023-08-12T07:07:40.278Z,65.21
2023-08-12T07:10:44.652Z,65.14
2023-08-12T07:13:47.675Z,64.49
2023-08-12T07:16:50.723Z,64.38
2023-08-12T07:19:53.825Z,64.84
2023-08-12T07:22:57.136Z,64.84
2023-08-12T07:26:00.115Z,63.70
2023-08-12T07:29:03.130Z,63.62
2023-08-12T07:32:06.331Z,63.00
2023-08-12T07:35:09.837Z,62.96
2023-08-12T07:38:13.258Z,62.18
2023-08-12T07:41:16.236Z,61.58
2023-08-12T07:44:19.266Z,59.97
2023-08-12T07:47:22.268Z,58.72
2023-08-12T07:50:25.300Z,59.52
2023-08-12T07:53:28.215Z,60.02
2023-08-12T07:56:31.235Z,58.73
2023-08-12T07:59:34.289Z,58.72
2023-08-12T08:02:37.299Z,57.94
2023-08-12T08:05:43.591Z,58.78
2023-08-12T08:08:46.704Z,59.20
2023-08-12T08:11:49.809Z,58.16
2023-08-12T08:14:53.070Z,57.66
2023-08-12T08:17:56.151Z,56.76
2023-08-12T08:21:05.638Z,55.55
2023-08-12T08:24:09.834Z,55.98
2023-08-12T08:27:14.396Z,56.91
2023-08-12T08:30:17.612Z,56.14
2023-08-12T08:36:24.180Z,55.55
2023-08-12T08:39:27.576Z,55.19
2023-08-12T08:42:30.779Z,55.55
2023-08-12T08:45:34.868Z,54.10
2023-08-12T08:48:39.316Z,54.64
2023-08-12T08:51:43.886Z,53.10
2023-08-12T08:54:46.922Z,52.69
2023-08-12T08:57:51.154Z,53.48
2023-08-12T09:00:54.230Z,54.11
2023-08-12T09:03:58.695Z,54.11
2023-08-12T09:07:02.519Z,53.94
2023-08-12T09:10:06.503Z,53.17
2023-08-12T09:13:10.481Z,52.50
2023-08-12T09:16:13.894Z,52.49
2023-08-12T09:19:16.880Z,52.10
2023-08-12T09:22:19.940Z,52.92
2023-08-12T09:25:22.896Z,53.19
2023-08-12T09:28:25.926Z,52.37
2023-08-12T09:31:31.077Z,50.93
2023-08-12T09:34:34.325Z,50.34
2023-08-12T09:37:37.301Z,51.63
2023-08-12T09:40:41.071Z,52.01
2023-08-12T09:43:44.773Z,51.14
2023-08-12T09:46:47.691Z,50.78
2023-08-12T09:49:51.166Z,49.17
2023-08-12T09:52:56.142Z,49.61
2023-08-12T09:56:06.458Z,50.19
2023-08-12T09:59:11.508Z,49.48
2023-08-12T10:02:19.657Z,48.09
2023-08-12T10:05:27.641Z,48.46
2023-08-12T10:08:31.010Z,50.35
2023-08-12T10:11:34.015Z,49.27
2023-08-12T10:14:37.201Z,48.43
2023-08-12T10:17:44.010Z,49.42
2023-08-12T10:20:49.194Z,48.34
2023-08-12T10:23:53.738Z,48.61
2023-08-12T10:26:56.845Z,47.39
2023-08-12T10:30:00.354Z,48.92
2023-08-12T10:33:04.413Z,48.39
2023-08-12T10:36:08.641Z,46.88
2023-08-12T10:39:11.732Z,48.03
2023-08-12T10:42:15.192Z,48.14
2023-08-12T10:45:19.374Z,48.77
2023-08-12T10:48:25.034Z,48.32
2023-08-12T10:51:54.772Z,48.16
2023-08-12T10:55:20.977Z,48.01
2023-08-12T10:58:41.946Z,46.90
2023-08-12T11:01:45.695Z,46.81
2023-08-12T11:05:01.974Z,46.62
2023-08-12T11:08:07.347Z,46.85
2023-08-12T11:11:21.301Z,48.71
2023-08-12T11:14:24.979Z,46.33
2023-08-12T11:17:38.336Z,45.54
2023-08-12T11:20:42.056Z,45.50
2023-08-12T11:23:45.792Z,45.66
2023-08-12T11:26:50.263Z,46.88
2023-08-12T11:29:53.356Z,47.17
2023-08-12T11:32:57.116Z,46.58
2023-08-12T11:36:00.230Z,46.20
2023-08-12T11:39:03.909Z,46.42
2023-08-12T11:42:06.880Z,46.88
2023-08-12T11:45:10.655Z,46.41
2023-08-12T11:48:13.970Z,45.31
2023-08-12T11:51:17.479Z,45.61
2023-08-12T11:54:21.471Z,44.85
2023-08-12T11:57:24.883Z,45.28
2023-08-12T12:00:28.244Z,45.14
2023-08-12T12:03:31.364Z,44.92
2023-08-12T12:06:37.973Z,43.96
2023-08-12T12:09:45.222Z,44.40
2023-08-12T12:12:48.292Z,44.61
2023-08-12T12:15:51.201Z,44.58
2023-08-12T12:19:00.299Z,44.59
2023-08-12T12:22:09.182Z,45.11
2023-08-12T12:25:14.406Z,45.19
2023-08-12T12:28:17.398Z,45.53
2023-08-12T12:31:23.060Z,44.69
2023-08-12T12:34:26.075Z,45.02
2023-08-12T12:37:29.248Z,45.22
2023-08-12T12:40:32.654Z,44.57
2023-08-12T12:43:35.966Z,46.27
2023-08-12T12:46:39.344Z,45.40
2023-08-12T12:49:45.307Z,44.08
2023-08-12T12:52:48.518Z,43.48
2023-08-12T12:55:51.898Z,44.93
2023-08-12T12:58:55.516Z,45.33
2023-08-12T13:01:59.215Z,45.07
2023-08-12T13:05:02.492Z,45.08
2023-08-12T13:08:07.367Z,43.97
2023-08-12T13:11:11.105Z,45.01
2023-08-12T13:14:14.149Z,45.60
2023-08-12T13:17:17.500Z,43.97
2023-08-12T13:20:22.035Z,44.89
2023-08-12T13:23:24.997Z,45.61
2023-08-12T13:26:28.118Z,45.63
2023-08-12T13:29:32.102Z,45.40
2023-08-12T13:32:35.141Z,45.41
2023-08-12T13:35:38.161Z,46.92
2023-08-12T13:38:41.202Z,45.52
2023-08-12T13:41:44.759Z,45.52
2023-08-12T13:44:47.757Z,45.89
2023-08-12T13:47:52.768Z,45.79
2023-08-12T13:50:56.744Z,46.23
2023-08-12T13:54:00.835Z,45.84
2023-08-12T13:57:04.274Z,46.69
2023-08-12T14:00:10.918Z,46.73
2023-08-12T14:03:19.938Z,47.26
2023-08-12T14:06:22.999Z,46.40
2023-08-12T14:09:25.923Z,46.99
2023-08-12T14:12:29.160Z,46.01
2023-08-12T14:15:32.215Z,46.05
2023-08-12T14:18:35.409Z,46.65
2023-08-12T14:21:38.333Z,46.06
2023-08-12T14:24:41.530Z,46.17
2023-08-12T14:27:44.489Z,46.02
2023-08-12T14:30:47.968Z,45.18
2023-08-12T14:33:51.095Z,45.31
2023-08-12T14:36:54.058Z,46.62
2023-08-12T14:39:57.200Z,47.44
2023-08-12T14:43:00.111Z,46.10
2023-08-12T14:46:03.318Z,45.24
2023-08-12T14:49:06.273Z,45.12
2023-08-12T14:52:20.274Z,44.84
2023-08-12T14:55:23.332Z,45.00
2023-08-12T14:58:26.249Z,45.43
2023-08-12T15:01:29.436Z,45.05
2023-08-12T15:04:33.861Z,44.51
2023-08-12T15:07:36.915Z,44.48
2023-08-12T15:10:39.903Z,44.87
2023-08-12T15:13:43.188Z,44.62
2023-08-12T15:16:46.143Z,43.92
2023-08-12T15:19:49.120Z,44.64
2023-08-12T15:22:52.036Z,44.99
2023-08-12T15:25:54.928Z,45.62
2023-08-12T15:28:57.905Z,45.30
2023-08-12T15:32:01.483Z,45.40
2023-08-12T15:35:04.769Z,45.07
2023-08-12T15:38:07.745Z,45.41
2023-08-12T15:41:15.474Z,46.21
2023-08-12T15:44:18.473Z,46.21
2023-08-12T15:47:21.497Z,45.80
2023-08-12T15:50:24.451Z,46.04
2023-08-12T15:53:27.400Z,45.42
2023-08-12T15:56:32.390Z,46.22
2023-08-12T15:59:37.137Z,46.52
2023-08-12T16:02:40.299Z,48.40
2023-08-12T16:05:43.662Z,47.69
2023-08-12T16:08:52.970Z,48.92
2023-08-12T16:12:04.066Z,49.00
2023-08-12T16:15:07.734Z,50.61
2023-08-12T16:18:10.892Z,49.47
2023-08-12T16:21:13.891Z,48.54
2023-08-12T16:24:16.973Z,48.41
2023-08-12T16:27:19.966Z,48.45
2023-08-12T16:30:23.204Z,48.31
2023-08-12T16:33:26.190Z,48.04
2023-08-12T16:36:29.200Z,48.20
2023-08-12T16:39:32.204Z,50.11
2023-08-12T16:42:35.450Z,52.38
2023-08-12T16:45:38.406Z,52.66
2023-08-12T16:48:41.415Z,52.97
2023-08-12T16:51:44.310Z,52.36
2023-08-12T16:54:47.331Z,52.85
2023-08-12T16:57:50.333Z,53.91
2023-08-12T17:00:53.704Z,53.97
2023-08-12T17:03:56.806Z,54.28
2023-08-12T17:06:59.794Z,54.20
2023-08-12T17:10:02.936Z,55.15
2023-08-12T17:13:06.114Z,55.40
2023-08-12T17:16:09.111Z,55.56
2023-08-12T17:19:12.119Z,56.10
2023-08-12T17:22:15.626Z,55.90
2023-08-12T17:25:18.732Z,56.41
2023-08-12T17:28:22.377Z,56.81
2023-08-12T17:31:25.305Z,56.86
2023-08-12T17:34:28.281Z,57.07
2023-08-12T17:37:36.667Z,57.61
2023-08-12T17:40:39.892Z,57.73
2023-08-12T17:43:47.954Z,58.15
2023-08-12T17:46:51.369Z,58.33
2023-08-12T17:49:57.096Z,58.76
2023-08-12T17:53:00.134Z,58.69
2023-08-12T17:56:04.477Z,58.67
2023-08-12T17:59:07.477Z,59.08
2023-08-12T18:02:13.327Z,59.33
2023-08-12T18:05:20.870Z,59.44
2023-08-12T18:08:24.299Z,59.32
2023-08-12T18:11:28.275Z,59.59
2023-08-12T18:14:31.252Z,59.95
2023-08-12T18:17:34.217Z,59.99
2023-08-12T18:20:37.209Z,60.06
2023-08-12T18:23:40.158Z,60.34
2023-08-12T18:26:43.141Z,60.45
2023-08-12T18:29:46.164Z,60.59
2023-08-12T18:32:49.157Z,60.83
2023-08-12T18:35:52.262Z,60.77
2023-08-12T18:38:55.187Z,60.94
2023-08-12T18:41:58.060Z,61.08
2023-08-12T18:45:01.009Z,61.47
2023-08-12T18:48:04.505Z,61.49
2023-08-12T18:51:07.550Z,61.46
2023-08-12T18:54:10.523Z,61.46
2023-08-12T18:57:13.510Z,61.31
2023-08-12T19:00:17.082Z,61.51
2023-08-12T19:03:20.074Z,61.60
2023-08-12T19:06:23.207Z,61.78
2023-08-12T19:09:26.851Z,62.04
2023-08-12T19:12:29.793Z,62.16
2023-08-12T19:15:32.776Z,62.37
2023-08-12T19:18:36.037Z,62.57
2023-08-12T19:21:39.540Z,62.69
2023-08-12T19:24:42.460Z,62.80
2023-08-12T19:27:45.365Z,62.81
2023-08-12T19:30:51.922Z,63.22
2023-08-12T19:33:54.933Z,63.04
2023-08-12T19:36:57.985Z,62.46
2023-08-12T19:40:00.891Z,62.52
2023-08-12T19:43:04.000Z,62.38
2023-08-12T19:46:07.533Z,62.88
2023-08-12T19:49:10.467Z,62.68
2023-08-12T19:52:13.647Z,62.68
2023-08-12T19:55:17.062Z,63.12
2023-08-12T19:58:20.662Z,62.98
2023-08-12T20:01:23.696Z,62.85
2023-08-12T20:04:26.849Z,62.95
2023-08-12T20:07:30.140Z,62.98
2023-08-12T20:10:33.240Z,63.24
2023-08-12T20:13:36.281Z,63.21
2023-08-12T20:16:39.321Z,63.41
2023-08-12T20:19:42.431Z,63.49
2023-08-12T20:23:03.417Z,63.56
2023-08-12T20:26:10.257Z,63.53
2023-08-12T20:29:13.217Z,63.71
2023-08-12T20:32:17.359Z,63.56
2023-08-12T20:35:20.349Z,63.39
2023-08-12T20:38:23.314Z,63.40
2023-08-12T20:41:26.233Z,63.60
2023-08-12T20:44:29.275Z,63.46
2023-08-12T20:47:32.270Z,63.66
2023-08-12T20:50:35.247Z,63.92
2023-08-12T20:53:38.452Z,63.91
2023-08-12T20:56:41.565Z,64.05
2023-08-12T20:59:47.346Z,64.08
2023-08-12T21:02:50.615Z,64.25
2023-08-12T21:05:53.691Z,64.25
2023-08-12T21:08:56.633Z,64.01
2023-08-12T21:11:59.948Z,64.27
2023-08-12T21:15:03.553Z,64.39
2023-08-12T21:18:06.588Z,64.15
2023-08-12T21:21:09.723Z,63.98
2023-08-12T21:24:12.782Z,63.92
2023-08-12T21:27:15.772Z,64.28
2023-08-12T21:30:20.072Z,64.36
2023-08-12T21:33:23.100Z,64.24
2023-08-12T21:36:26.159Z,64.34
2023-08-12T21:39:29.125Z,64.23
2023-08-12T21:42:32.098Z,64.02
2023-08-12T21:45:35.107Z,64.05
2023-08-12T21:48:38.072Z,64.13
2023-08-12T21:51:40.971Z,64.15
2023-08-12T21:54:44.551Z,64.14
2023-08-12T21:57:47.606Z,64.32
2023-08-12T22:00:50.687Z,64.47
2023-08-12T22:03:53.672Z,64.40
2023-08-12T22:06:56.669Z,64.43
2023-08-12T22:10:00.542Z,64.39
2023-08-12T22:13:03.928Z,64.47
2023-08-12T22:16:07.108Z,64.58
2023-08-12T22:19:10.314Z,64.68
2023-08-12T22:22:19.275Z,64.79
2023-08-12T22:25:23.229Z,64.60
2023-08-12T22:28:26.172Z,64.70
2023-08-12T22:31:29.269Z,64.93
2023-08-12T22:34:32.284Z,64.85
2023-08-12T22:37:35.331Z,64.80
2023-08-12T22:40:38.229Z,64.98
2023-08-12T22:43:41.218Z,65.05
2023-08-12T22:46:44.210Z,65.06
2023-08-12T22:49:47.555Z,65.03
2023-08-12T22:52:50.731Z,65.14
2023-08-12T22:55:53.689Z,65.43
2023-08-12T22:58:58.933Z,65.51
2023-08-12T23:02:02.038Z,65.33
2023-08-12T23:05:05.380Z,65.36
2023-08-12T23:08:08.624Z,65.50
2023-08-12T23:11:11.671Z,65.55
2023-08-12T23:14:14.889Z,65.66
2023-08-12T23:17:18.028Z,65.70
2023-08-12T23:20:21.177Z,66.11
2023-08-12T23:23:24.257Z,66.08
2023-08-12T23:26:27.201Z,66.12
2023-08-12T23:29:30.186Z,66.02
2023-08-12T23:32:33.204Z,66.06
2023-08-12T23:35:36.202Z,66.08
2023-08-12T23:38:39.085Z,66.03
2023-08-12T23:41:42.192Z,66.10
2023-08-12T23:44:45.072Z,65.85
2023-08-12T23:47:48.059Z,65.61
2023-08-12T23:50:52.004Z,65.31
2023-08-12T23:53:55.022Z,65.33
2023-08-12T23:56:59.692Z,65.72
